Terminal Aerodrome Forecast
Issued by NWS

Home | Current Version | Previous Version | Text Only | Print | Product List | Glossary On
Versions: 1 2 3 4 5 6 7 8 9 10 11 12
000
FTUS42 TJSJ 021300 AAA
TAFJSJ
TAF AMD
TJSJ 021348Z 0214/0312 12006KT P6SM FEW030
     FM021600 08012KT P6SM VCTS SCT040CB
     FM022250 10007KT P6SM FEW040=

USA.gov is the U.S. government's official web portal to all federal, state and local government web resources and services.